Time;durP1;ratioP1;P1;durP2;ratioP2;P2;SDS_P1;SDS_P2;PMS_P1;PMS_P2;Temp;Humidity;BMP_temperature;BMP_pressure;BME280_temperature;BME280_humidity;BME280_pressure;Samples;Min_cycle;Max_cycle;Signal;HPM_P1;HPM_P2
2022/11/04 00:01:58;;;;;;;8.73;7.83;;;10.90;1.00;;;;;;4984879;28;20920;-66
2022/11/04 00:04:26;;;;;;;8.30;6.70;;;10.90;1.00;;;;;;4974055;28;20735;-67
2022/11/04 00:06:53;;;;;;;8.13;6.03;;;10.90;1.00;;;;;;4974150;28;20411;-67
2022/11/04 00:09:25;;;;;;;9.93;6.30;;;10.90;1.00;;;;;;4973784;28;20452;-68
2022/11/04 00:14:35;;;;;;;12.30;6.90;;;11.00;1.00;;;;;;4973874;28;20467;-67
2022/11/04 00:17:20;;;;;;;16.90;7.00;;;10.90;1.00;;;;;;4974009;28;20954;-67
2022/11/04 00:30:56;;;;;;;7.73;5.67;;;11.00;1.00;;;;;;4973886;28;20470;-67
2022/11/04 00:33:25;;;;;;;10.10;6.27;;;11.00;1.00;;;;;;4973295;28;20544;-67
2022/11/04 00:35:52;;;;;;;8.50;5.30;;;11.10;1.00;;;;;;4973722;28;20405;-69
2022/11/04 00:38:18;;;;;;;8.77;6.70;;;11.10;1.00;;;;;;4973486;28;20918;-69
2022/11/04 00:40:44;;;;;;;9.53;6.33;;;11.10;1.00;;;;;;4973396;28;20406;-67
2022/11/04 00:43:10;;;;;;;10.07;8.20;;;11.10;1.00;;;;;;4972452;28;20952;-68
2022/11/04 00:45:36;;;;;;;7.33;5.67;;;11.10;1.00;;;;;;4973319;28;20409;-68
2022/11/04 00:48:02;;;;;;;9.50;6.67;;;11.10;1.00;;;;;;4972826;28;20408;-68
2022/11/04 00:50:27;;;;;;;7.50;6.70;;;11.10;1.00;;;;;;4973111;28;20263;-67
2022/11/04 00:53:03;;;;;;;8.40;5.67;;;11.10;1.00;;;;;;4973190;28;20197;-69
2022/11/04 00:55:29;;;;;;;10.33;6.50;;;11.10;1.00;;;;;;4973623;28;20650;-69
2022/11/04 00:57:56;;;;;;;8.53;6.17;;;11.10;1.00;;;;;;4973187;28;20429;-68
2022/11/04 01:00:22;;;;;;;8.60;5.27;;;11.00;1.00;;;;;;4974692;28;20263;-67
2022/11/04 01:02:47;;;;;;;8.13;4.90;;;11.00;1.00;;;;;;4981224;28;20536;-69
2022/11/04 01:05:13;;;;;;;8.17;4.70;;;11.00;1.00;;;;;;4973266;28;20178;-68
2022/11/04 01:07:39;;;;;;;6.57;4.90;;;11.00;1.00;;;;;;4972801;28;20638;-70
2022/11/04 01:10:05;;;;;;;14.23;4.70;;;11.00;1.00;;;;;;4972832;28;20210;-65
2022/11/04 01:12:31;;;;;;;10.53;4.93;;;11.00;1.00;;;;;;4971675;28;20210;-68
2022/11/04 01:14:56;;;;;;;5.50;3.50;;;11.00;1.00;;;;;;4972709;28;20436;-67
2022/11/04 01:17:22;;;;;;;3.63;2.87;;;11.00;1.00;;;;;;4972743;28;20170;-66
2022/11/04 01:19:48;;;;;;;4.23;2.87;;;11.00;1.00;;;;;;4972029;28;21045;-68
2022/11/04 01:22:14;;;;;;;14.93;3.80;;;11.00;1.00;;;;;;4971832;28;20173;-64
2022/11/04 01:24:39;;;;;;;5.10;2.73;;;11.10;1.00;;;;;;4972422;28;20178;-70
2022/11/04 01:27:05;;;;;;;5.97;2.50;;;11.00;1.00;;;;;;4971906;28;20594;-68
2022/11/04 01:29:31;;;;;;;3.03;2.73;;;11.00;1.00;;;;;;4972238;28;20204;-68
2022/11/04 01:31:56;;;;;;;4.77;2.67;;;11.00;1.00;;;;;;4971551;28;20197;-69
2022/11/04 01:34:22;;;;;;;10.03;4.00;;;11.00;1.00;;;;;;4971718;28;20252;-69
2022/11/04 01:36:47;;;;;;;14.00;2.60;;;11.10;1.00;;;;;;4972240;28;20245;-67
2022/11/04 01:39:13;;;;;;;4.70;2.00;;;11.10;1.00;;;;;;4970572;28;20204;-69
2022/11/04 01:41:39;;;;;;;5.23;2.20;;;11.00;1.00;;;;;;4971597;28;20224;-68
2022/11/04 01:44:42;;;;;;;11.93;4.07;;;11.00;1.00;;;;;;4970855;28;20306;-68
2022/11/04 01:47:20;;;;;;;4.23;2.30;;;11.00;1.00;;;;;;4972282;28;20490;-68
2022/11/04 01:50:05;;;;;;;3.27;1.73;;;11.00;1.00;;;;;;4971776;28;20424;-67
2022/11/04 01:52:43;;;;;;;5.30;2.10;;;11.00;1.00;;;;;;4971225;28;20948;-67
2022/11/04 01:55:21;;;;;;;2.70;1.77;;;11.00;1.00;;;;;;4971926;28;20412;-68
2022/11/04 01:57:48;;;;;;;4.40;2.67;;;11.00;1.00;;;;;;4971980;28;20428;-68
2022/11/04 02:00:15;;;;;;;8.90;2.20;;;10.90;1.00;;;;;;4971036;28;20503;-67
2022/11/04 02:02:51;;;;;;;5.37;2.83;;;10.80;1.00;;;;;;4970768;28;21071;-67
2022/11/04 02:05:17;;;;;;;3.93;2.30;;;10.80;1.00;;;;;;4972023;28;20427;-66
2022/11/04 02:07:43;;;;;;;2.97;2.07;;;10.80;1.00;;;;;;4971708;28;20799;-66
2022/11/04 02:10:09;;;;;;;3.73;2.40;;;10.80;1.00;;;;;;4971689;28;20452;-69
2022/11/04 02:12:50;;;;;;;6.93;2.43;;;10.90;1.00;;;;;;4971231;28;20202;-67
2022/11/04 02:15:33;;;;;;;2.97;2.10;;;10.80;1.00;;;;;;4971906;28;20405;-68
2022/11/04 02:18:16;;;;;;;3.20;2.20;;;10.80;1.00;;;;;;4971237;28;20405;-68
2022/11/04 02:20:48;;;;;;;2.73;2.20;;;10.90;1.00;;;;;;4970948;28;20416;-67
2022/11/04 02:23:35;;;;;;;4.23;2.10;;;10.90;1.00;;;;;;4971344;28;20471;-68
2022/11/04 02:26:13;;;;;;;4.03;1.97;;;10.90;1.00;;;;;;4971672;28;20417;-67
2022/11/04 02:29:09;;;;;;;4.50;2.13;;;10.90;1.00;;;;;;4971514;28;20479;-67
2022/11/04 02:32:03;;;;;;;4.70;2.73;;;10.90;1.00;;;;;;4970826;28;20449;-67
2022/11/04 02:34:32;;;;;;;3.57;2.43;;;10.90;1.00;;;;;;4970787;28;20425;-66
2022/11/04 02:37:30;;;;;;;4.57;2.40;;;10.90;1.00;;;;;;4971575;28;20423;-66
2022/11/04 02:40:26;;;;;;;8.70;2.50;;;10.90;1.00;;;;;;4971627;28;20432;-68
2022/11/04 02:43:30;;;;;;;3.80;2.60;;;10.90;1.00;;;;;;4970034;28;20425;-68
2022/11/04 02:46:22;;;;;;;5.70;2.73;;;10.90;1.00;;;;;;4971867;28;20443;-67
2022/11/04 02:49:02;;;;;;;8.53;2.47;;;10.90;1.00;;;;;;4970899;28;20429;-68
2022/11/04 02:51:53;;;;;;;4.13;2.90;;;10.90;1.00;;;;;;4970592;28;20420;-68
2022/11/04 02:54:26;;;;;;;11.13;2.80;;;10.90;1.00;;;;;;4970833;28;20519;-68
2022/11/04 02:56:55;;;;;;;9.40;2.70;;;10.90;1.00;;;;;;4972025;28;20416;-65
2022/11/04 02:59:31;;;;;;;6.40;2.90;;;10.90;1.00;;;;;;4971449;28;20519;-67
2022/11/04 03:02:00;;;;;;;12.60;3.70;;;10.90;1.00;;;;;;4970384;28;20417;-66
2022/11/04 03:04:34;;;;;;;4.67;2.57;;;10.90;1.00;;;;;;4971012;28;20905;-67
2022/11/04 03:07:02;;;;;;;4.27;3.00;;;10.90;1.00;;;;;;4975016;28;20491;-67
2022/11/04 03:09:29;;;;;;;6.93;2.87;;;10.90;1.00;;;;;;4974866;28;20449;-68
2022/11/04 03:12:01;;;;;;;7.27;2.40;;;10.90;1.00;;;;;;4974000;28;20456;-68
2022/11/04 03:14:47;;;;;;;3.27;2.27;;;11.00;1.00;;;;;;4974638;28;20413;-66
2022/11/04 03:17:39;;;;;;;5.93;2.60;;;11.00;1.00;;;;;;4974778;28;20401;-66
2022/11/04 03:20:11;;;;;;;5.40;2.60;;;11.00;1.00;;;;;;4973516;28;20437;-67
2022/11/04 03:22:37;;;;;;;3.80;2.60;;;10.90;1.00;;;;;;4974126;28;20405;-66
2022/11/04 03:25:06;;;;;;;4.73;2.10;;;11.00;1.00;;;;;;4974589;28;20434;-66
2022/11/04 03:27:48;;;;;;;8.27;2.90;;;10.90;1.00;;;;;;4974343;28;20166;-66
2022/11/04 03:30:20;;;;;;;5.30;2.17;;;10.90;1.00;;;;;;4974053;28;20425;-67
2022/11/04 03:33:06;;;;;;;1.97;1.67;;;10.90;1.00;;;;;;4973582;28;20538;-66
2022/11/04 03:35:32;;;;;;;6.70;2.50;;;10.90;1.00;;;;;;4974808;28;20917;-66
2022/11/04 03:37:58;;;;;;;6.30;2.10;;;10.90;1.00;;;;;;4973040;28;20433;-67
2022/11/04 03:40:25;;;;;;;2.93;1.60;;;10.90;1.00;;;;;;4970827;28;20745;-66
2022/11/04 03:43:13;;;;;;;4.20;1.80;;;10.90;1.00;;;;;;4967926;28;20417;-67
2022/11/04 03:45:41;;;;;;;2.23;1.73;;;10.80;1.00;;;;;;4957948;28;20414;-66
2022/11/04 03:48:07;;;;;;;9.60;2.53;;;10.90;1.00;;;;;;4973996;28;20401;-67
2022/11/04 03:50:40;;;;;;;5.53;1.97;;;11.00;1.00;;;;;;4973175;28;20427;-67
2022/11/04 03:53:07;;;;;;;11.60;4.30;;;11.00;1.00;;;;;;4974061;28;20212;-66
2022/11/04 03:55:44;;;;;;;3.40;1.90;;;11.00;1.00;;;;;;4974263;28;20509;-66
2022/11/04 03:58:42;;;;;;;3.57;1.40;;;11.00;1.00;;;;;;4973865;28;20444;-67
2022/11/04 04:01:38;;;;;;;3.07;1.47;;;10.90;1.00;;;;;;4973158;28;20780;-64
2022/11/04 04:04:21;;;;;;;4.43;1.47;;;10.80;1.00;;;;;;4973489;28;20771;-61
2022/11/04 04:06:50;;;;;;;1.50;1.00;;;10.80;1.00;;;;;;4972483;28;20439;-68
2022/11/04 04:09:22;;;;;;;7.37;1.47;;;10.70;1.00;;;;;;4967691;28;20946;-66
2022/11/04 04:12:12;;;;;;;4.10;1.60;;;10.70;1.00;;;;;;4972744;28;20504;-66
2022/11/04 04:14:50;;;;;;;4.03;1.17;;;10.80;1.00;;;;;;4954563;29;20407;-67
2022/11/04 04:17:53;;;;;;;5.60;1.80;;;10.80;1.00;;;;;;4961473;28;20460;-68
2022/11/04 04:20:23;;;;;;;4.50;1.00;;;10.80;99.90;;;;;;4956366;28;20442;-66
2022/11/04 04:27:29;;;;;;;2.90;1.50;;;10.80;99.90;;;;;;4953828;28;20497;-68
2022/11/04 04:28:37;;;;;;;5.43;1.33;;;10.80;1.00;;;;;;4973289;28;20496;-67
2022/11/04 04:31:03;;;;;;;9.53;2.37;;;10.80;1.00;;;;;;4972554;28;20405;-66
2022/11/04 04:33:29;;;;;;;3.07;1.93;;;10.80;1.00;;;;;;4972742;28;20455;-67
2022/11/04 04:35:56;;;;;;;9.27;2.50;;;10.80;1.00;;;;;;4973504;28;20780;-67
2022/11/04 04:46:51;;;;;;;4.73;2.07;;;10.80;1.00;;;;;;4954374;29;20417;-67
2022/11/04 04:49:16;;;;;;;5.10;2.63;;;10.90;1.00;;;;;;4953229;28;20890;-67
2022/11/04 04:51:46;;;;;;;4.90;2.23;;;10.90;1.00;;;;;;4951389;29;20446;-65
2022/11/04 04:54:12;;;;;;;5.00;2.87;;;10.90;1.00;;;;;;4953790;29;20162;-67
2022/11/04 04:56:37;;;;;;;19.57;3.43;;;10.90;1.00;;;;;;4953830;28;20420;-67
2022/11/04 04:59:03;;;;;;;6.17;2.13;;;10.90;1.00;;;;;;4953303;29;20517;-67
2022/11/04 05:01:29;;;;;;;14.13;1.80;;;10.90;99.90;;;;;;4964006;28;20170;-66
2022/11/04 05:03:55;;;;;;;7.17;2.67;;;10.90;99.90;;;;;;4972396;28;20976;-67
2022/11/04 05:06:20;;;;;;;20.53;3.10;;;10.90;99.90;;;;;;4973047;28;20490;-67
2022/11/04 05:08:46;;;;;;;9.80;1.83;;;10.90;1.00;;;;;;4972533;28;20256;-66
2022/11/04 05:11:12;;;;;;;5.83;1.93;;;10.80;1.00;;;;;;4971798;28;20614;-68
2022/11/04 05:13:39;;;;;;;9.13;2.20;;;10.70;1.00;;;;;;4972451;28;20210;-67
2022/11/04 05:16:11;;;;;;;7.10;1.80;;;10.70;1.00;;;;;;4972501;28;20421;-67
2022/11/04 05:18:36;;;;;;;14.53;3.63;;;10.70;1.00;;;;;;4971978;28;20829;-66
2022/11/04 05:21:07;;;;;;;19.53;2.43;;;10.70;1.00;;;;;;4971878;28;20401;-67
2022/11/04 05:23:34;;;;;;;15.77;2.17;;;10.70;1.00;;;;;;4971199;28;20186;-68
2022/11/04 05:26:00;;;;;;;10.97;2.07;;;10.60;1.00;;;;;;4972704;28;20763;-67
2022/11/04 05:28:25;;;;;;;7.50;2.20;;;10.60;1.00;;;;;;4971911;28;20444;-67
2022/11/04 05:30:51;;;;;;;11.27;2.37;;;10.60;1.00;;;;;;4971829;28;20279;-68
2022/11/04 05:33:17;;;;;;;22.13;3.27;;;10.60;1.00;;;;;;4971743;28;20209;-67
2022/11/04 05:35:42;;;;;;;22.80;3.60;;;10.60;1.00;;;;;;4972487;28;20205;-64
2022/11/04 05:38:08;;;;;;;18.00;3.30;;;10.60;1.00;;;;;;4971796;28;20277;-66
2022/11/04 05:40:34;;;;;;;27.30;4.50;;;10.60;1.00;;;;;;4971403;28;20281;-67
2022/11/04 05:43:00;;;;;;;14.73;3.20;;;10.60;1.00;;;;;;4972028;28;20193;-68
2022/11/04 05:45:27;;;;;;;17.47;2.87;;;10.50;1.00;;;;;;4972459;28;20177;-66
2022/11/04 05:48:04;;;;;;;16.20;2.50;;;10.50;1.00;;;;;;4972173;28;20177;-67
2022/11/04 05:50:31;;;;;;;17.43;3.63;;;10.50;1.00;;;;;;4971063;28;20475;-67
2022/11/04 05:52:58;;;;;;;22.80;3.70;;;10.50;1.00;;;;;;4970092;28;20457;-67
2022/11/04 05:55:25;;;;;;;15.17;2.67;;;10.50;1.00;;;;;;4972123;28;20449;-67
2022/11/04 05:57:51;;;;;;;24.23;4.13;;;10.50;1.00;;;;;;4971874;28;20413;-67
2022/11/04 06:00:16;;;;;;;30.97;4.03;;;10.50;1.00;;;;;;4979849;28;20429;-68
2022/11/04 06:02:42;;;;;;;10.50;2.30;;;10.40;1.00;;;;;;4979217;28;20249;-66
2022/11/04 06:05:08;;;;;;;29.80;3.50;;;10.40;1.00;;;;;;4972584;28;20169;-66
2022/11/04 06:07:34;;;;;;;15.50;2.67;;;10.40;1.00;;;;;;4971970;28;20182;-69
2022/11/04 06:10:00;;;;;;;17.83;2.40;;;10.30;1.00;;;;;;4971948;28;20533;-69
2022/11/04 06:12:25;;;;;;;13.67;2.47;;;10.40;1.00;;;;;;4971078;28;20205;-68
2022/11/04 06:14:51;;;;;;;33.30;4.17;;;10.40;1.00;;;;;;4971673;28;20174;-69
2022/11/04 06:17:19;;;;;;;35.87;5.27;;;10.50;1.00;;;;;;4971688;28;20248;-69
2022/11/04 06:19:45;;;;;;;88.27;9.60;;;10.50;1.00;;;;;;4970888;28;20197;-68
2022/11/04 06:22:13;;;;;;;31.67;5.30;;;10.50;1.00;;;;;;4970746;28;21018;-67
2022/11/04 06:24:39;;;;;;;17.63;2.90;;;10.50;1.00;;;;;;4971458;28;20182;-68
2022/11/04 06:27:04;;;;;;;16.40;2.40;;;10.50;1.00;;;;;;4971438;28;20776;-68
2022/11/04 06:29:31;;;;;;;19.87;3.80;;;10.50;1.00;;;;;;4971476;28;20444;-66
2022/11/04 06:31:56;;;;;;;46.47;5.13;;;10.50;1.00;;;;;;4970724;28;20212;-67
2022/11/04 06:34:22;;;;;;;8.93;2.10;;;10.50;1.00;;;;;;4971450;28;20786;-68
2022/11/04 06:36:49;;;;;;;8.87;2.83;;;10.50;1.00;;;;;;4971511;28;20228;-67
2022/11/04 06:39:15;;;;;;;9.37;2.37;;;10.50;1.00;;;;;;4971481;28;20190;-68
2022/11/04 06:41:40;;;;;;;5.00;2.20;;;10.50;1.00;;;;;;4974665;28;20760;-67
2022/11/04 06:44:06;;;;;;;17.70;3.30;;;10.50;1.00;;;;;;4975328;28;20539;-67
2022/11/04 06:46:39;;;;;;;12.27;2.43;;;10.60;1.00;;;;;;4975381;28;20581;-67
2022/11/04 06:49:06;;;;;;;6.93;2.10;;;10.50;1.00;;;;;;4974853;28;20428;-64
2022/11/04 06:51:32;;;;;;;32.20;6.20;;;10.40;1.00;;;;;;4972865;28;20413;-67
2022/11/04 06:53:58;;;;;;;14.03;3.10;;;10.40;1.00;;;;;;4975060;28;20721;-67
2022/11/04 06:56:24;;;;;;;30.67;4.57;;;10.50;1.00;;;;;;4975073;28;20507;-69
2022/11/04 06:58:51;;;;;;;13.00;3.73;;;10.50;1.00;;;;;;4976251;28;20204;-68
2022/11/04 07:01:19;;;;;;;68.93;9.83;;;10.50;1.00;;;;;;4974928;28;20421;-67
2022/11/04 07:03:49;;;;;;;22.90;4.70;;;10.60;1.00;;;;;;4974268;28;20417;-69
2022/11/04 07:06:15;;;;;;;11.70;4.90;;;10.60;1.00;;;;;;4974818;28;20740;-69
2022/11/04 07:08:40;;;;;;;11.00;3.73;;;10.60;1.00;;;;;;4974662;28;20455;-69
2022/11/04 07:11:06;;;;;;;29.70;4.90;;;10.70;1.00;;;;;;4973730;28;20277;-68
2022/11/04 07:13:32;;;;;;;41.43;8.90;;;10.60;1.00;;;;;;4974490;28;20209;-68
2022/11/04 07:15:58;;;;;;;38.13;5.50;;;10.60;1.00;;;;;;4974650;28;20413;-68
2022/11/04 07:18:24;;;;;;;40.03;5.53;;;10.60;1.00;;;;;;4974487;28;20208;-70
2022/11/04 07:20:50;;;;;;;72.27;8.77;;;10.50;1.00;;;;;;4973959;28;20409;-69
2022/11/04 07:23:16;;;;;;;72.30;8.80;;;10.40;1.00;;;;;;4974572;28;20415;-69
2022/11/04 07:25:42;;;;;;;49.00;6.60;;;10.50;1.00;;;;;;4974673;28;20575;-69
2022/11/04 07:28:08;;;;;;;45.37;6.90;;;10.50;1.00;;;;;;4974383;28;20899;-68
2022/11/04 07:30:34;;;;;;;59.87;7.37;;;10.50;1.00;;;;;;4972320;28;20220;-68
2022/11/04 07:32:59;;;;;;;45.67;8.03;;;10.50;1.00;;;;;;4965931;28;20804;-67
2022/11/04 07:35:25;;;;;;;53.27;7.93;;;10.50;1.00;;;;;;4988836;28;20185;-67
2022/11/04 07:37:51;;;;;;;30.87;6.10;;;10.60;1.00;;;;;;4963911;28;20185;-65
2022/11/04 07:40:16;;;;;;;15.63;3.80;;;10.60;1.00;;;;;;4954999;28;20200;-70
2022/11/04 07:42:42;;;;;;;34.53;6.90;;;10.60;1.00;;;;;;4953860;28;20196;-69
2022/11/04 07:45:08;;;;;;;27.17;5.03;;;10.60;1.00;;;;;;4955208;28;20178;-68
2022/11/04 07:47:34;;;;;;;5.80;2.37;;;10.70;1.00;;;;;;4969160;28;20190;-69
2022/11/04 07:49:59;;;;;;;3.57;2.47;;;10.60;1.00;;;;;;4964730;28;20461;-67
2022/11/04 07:52:25;;;;;;;9.10;2.40;;;10.60;1.00;;;;;;4972862;28;20549;-68
2022/11/04 07:54:51;;;;;;;2.30;2.10;;;10.60;1.00;;;;;;4974193;28;20174;-68
2022/11/04 07:57:17;;;;;;;4.20;2.40;;;10.60;1.00;;;;;;4973984;28;20484;-68
2022/11/04 07:59:42;;;;;;;9.67;2.93;;;10.60;1.00;;;;;;4973684;28;20256;-68
2022/11/04 08:02:09;;;;;;;12.23;3.83;;;10.70;1.00;;;;;;4973098;28;20170;-69
2022/11/04 08:04:36;;;;;;;30.30;5.43;;;10.70;1.00;;;;;;4971886;28;20233;-67
2022/11/04 08:07:02;;;;;;;50.70;8.60;;;10.60;1.00;;;;;;4971900;28;20978;-69
2022/11/04 08:09:27;;;;;;;29.20;5.23;;;10.60;1.00;;;;;;4965537;28;20449;-69
2022/11/04 08:11:53;;;;;;;40.97;6.53;;;10.60;1.00;;;;;;4972943;28;20208;-69
2022/11/04 08:14:19;;;;;;;22.30;3.10;;;10.60;1.00;;;;;;4973732;28;20182;-69
2022/11/04 08:16:45;;;;;;;14.57;2.63;;;10.60;1.00;;;;;;4972497;28;20201;-69
2022/11/04 08:19:10;;;;;;;96.87;12.50;;;10.60;1.00;;;;;;4971306;28;20202;-68
2022/11/04 08:21:36;;;;;;;74.23;10.27;;;10.60;1.00;;;;;;4968495;28;20170;-67
2022/11/04 08:24:03;;;;;;;63.90;7.17;;;10.60;1.00;;;;;;4954489;28;20269;-68
2022/11/04 08:26:29;;;;;;;37.37;5.00;;;10.60;1.00;;;;;;4952910;28;20177;-68
2022/11/04 08:28:55;;;;;;;64.53;7.33;;;10.60;1.00;;;;;;4972190;28;20441;-68
2022/11/04 08:31:30;;;;;;;23.73;5.73;;;10.70;1.00;;;;;;4962640;28;20774;-69
2022/11/04 08:33:56;;;;;;;86.23;10.07;;;10.70;1.00;;;;;;4955609;28;20780;-69
2022/11/04 08:36:31;;;;;;;56.57;5.70;;;10.70;1.00;;;;;;4955154;28;20490;-68
2022/11/04 08:38:57;;;;;;;37.53;5.50;;;10.70;1.00;;;;;;4965100;28;20208;-69
2022/11/04 08:41:27;;;;;;;84.17;9.63;;;10.80;1.00;;;;;;4968305;28;20421;-69
2022/11/04 08:43:55;;;;;;;39.53;6.70;;;10.80;1.00;;;;;;4970140;28;20420;-70
2022/11/04 08:46:21;;;;;;;9.70;2.80;;;10.90;1.00;;;;;;4962991;28;20509;-69
2022/11/04 08:48:48;;;;;;;31.40;4.07;;;10.80;99.90;;;;;;4970238;28;20546;-69
2022/11/04 08:51:19;;;;;;;3.73;2.23;;;10.70;1.00;;;;;;4967255;28;20426;-68
2022/11/04 08:53:45;;;;;;;8.07;2.00;;;10.60;1.00;;;;;;4966696;28;20507;-69
2022/11/04 08:56:22;;;;;;;36.33;6.43;;;10.70;1.00;;;;;;4968568;28;20429;-67
2022/11/04 08:58:48;;;;;;;51.50;6.67;;;10.70;1.00;;;;;;4966299;28;20221;-70
2022/11/04 09:01:15;;;;;;;24.63;5.27;;;10.70;1.00;;;;;;4964379;28;20434;-69
2022/11/04 09:03:42;;;;;;;50.27;6.60;;;10.60;1.00;;;;;;4966699;28;20501;-67
2022/11/04 09:06:14;;;;;;;35.43;4.83;;;10.60;1.00;;;;;;4966008;28;20445;-68
2022/11/04 09:08:42;;;;;;;22.40;5.83;;;10.70;1.00;;;;;;4960985;28;20476;-68
2022/11/04 09:11:10;;;;;;;11.80;2.97;;;10.70;1.00;;;;;;4960941;28;20413;-69
2022/11/04 09:13:36;;;;;;;17.37;2.93;;;10.80;1.00;;;;;;4962611;28;20985;-69
2022/11/04 09:16:02;;;;;;;29.10;6.00;;;10.90;99.90;;;;;;4962196;28;20491;-69
2022/11/04 09:18:29;;;;;;;16.07;3.43;;;11.00;99.90;;;;;;4963188;28;20170;-68
2022/11/04 09:20:55;;;;;;;8.67;2.47;;;11.00;99.90;;;;;;4961282;28;20492;-68
2022/11/04 09:23:20;;;;;;;23.20;4.63;;;11.00;99.90;;;;;;4962151;28;20551;-69
2022/11/04 09:25:46;;;;;;;9.13;2.20;;;11.00;99.90;;;;;;4960112;28;20328;-69
2022/11/04 09:28:12;;;;;;;37.37;6.50;;;11.00;99.90;;;;;;4964114;28;20182;-69
2022/11/04 09:30:37;;;;;;;8.43;2.97;;;11.00;99.90;;;;;;4964290;28;20210;-68
2022/11/04 09:33:03;;;;;;;9.80;3.27;;;11.00;99.90;;;;;;4962565;28;20205;-69
2022/11/04 09:35:29;;;;;;;7.80;3.10;;;11.00;99.90;;;;;;4964188;28;20519;-69
2022/11/04 09:37:55;;;;;;;8.37;3.60;;;11.00;99.90;;;;;;4965784;28;20226;-69
2022/11/04 09:40:24;;;;;;;13.63;2.70;;;11.20;99.90;;;;;;4966479;28;20202;-69
2022/11/04 09:43:09;;;;;;;7.63;2.40;;;11.20;92.50;;;;;;4964495;28;20433;-69
2022/11/04 09:45:39;;;;;;;12.03;4.20;;;11.30;51.90;;;;;;4961562;28;20457;-68
2022/11/04 09:48:08;;;;;;;15.77;4.00;;;11.30;91.60;;;;;;4964429;28;20437;-68
2022/11/04 09:50:48;;;;;;;40.80;6.57;;;11.40;1.00;;;;;;4969800;28;21044;-68
2022/11/04 09:53:20;;;;;;;26.10;5.30;;;11.40;1.00;;;;;;4963468;28;20457;-67
2022/11/04 09:55:53;;;;;;;261.20;21.90;;;11.20;1.00;;;;;;4971573;28;20438;-68
2022/11/04 09:58:19;;;;;;;155.33;15.20;;;11.30;1.00;;;;;;4956700;28;20452;-67
2022/11/04 10:01:09;;;;;;;76.43;11.53;;;11.30;1.00;;;;;;4952082;28;20493;-70
2022/11/04 10:04:01;;;;;;;27.83;4.70;;;11.40;1.00;;;;;;4958482;28;20609;-68
2022/11/04 10:06:36;;;;;;;24.50;5.80;;;11.40;1.00;;;;;;4961242;28;20417;-68
2022/11/04 10:09:34;;;;;;;30.20;5.90;;;11.40;1.00;;;;;;4959788;28;20460;-69
2022/11/04 10:12:21;;;;;;;39.77;8.47;;;11.40;1.00;;;;;;4970742;28;20563;-68
2022/11/04 10:15:02;;;;;;;64.03;9.17;;;11.40;99.90;;;;;;4963799;28;20433;-68
2022/11/04 10:17:47;;;;;;;192.47;21.60;;;11.30;99.90;;;;;;4967346;28;20508;-68
2022/11/04 10:20:54;;;;;;;87.10;11.20;;;11.30;99.90;;;;;;4966161;28;20452;-69
2022/11/04 10:23:21;;;;;;;50.40;7.53;;;11.30;99.90;;;;;;4948699;28;20497;-69
2022/11/04 10:25:51;;;;;;;8.27;3.60;;;11.30;1.00;;;;;;4966119;28;20437;-65
2022/11/04 10:28:20;;;;;;;7.27;3.30;;;11.40;1.00;;;;;;4971738;28;20432;-68
2022/11/04 10:30:49;;;;;;;11.53;5.93;;;11.40;1.00;;;;;;4971011;28;20413;-68
2022/11/04 10:33:26;;;;;;;7.60;4.00;;;11.40;1.00;;;;;;4966224;28;20465;-66
2022/11/04 10:35:58;;;;;;;26.23;5.20;;;11.40;99.90;;;;;;4960144;28;20436;-69
2022/11/04 10:38:35;;;;;;;5.90;4.40;;;11.40;1.00;;;;;;4961740;28;20409;-67
2022/11/04 10:41:01;;;;;;;13.20;4.40;;;11.50;1.00;;;;;;4962237;28;20518;-66
2022/11/04 10:43:32;;;;;;;6.53;4.30;;;11.50;99.90;;;;;;4961044;28;20931;-66
2022/11/04 10:46:03;;;;;;;11.93;3.87;;;11.50;1.00;;;;;;4964933;28;20433;-66
2022/11/04 10:48:39;;;;;;;9.70;3.27;;;11.40;99.90;;;;;;4962005;28;20417;-68
2022/11/04 10:51:05;;;;;;;22.40;5.83;;;11.60;1.00;;;;;;4957626;28;20421;-69
2022/11/04 10:53:32;;;;;;;17.67;4.07;;;11.60;1.00;;;;;;4959721;28;20466;-67
2022/11/04 10:56:37;;;;;;;14.97;2.77;;;11.60;1.00;;;;;;4963714;28;20769;-66
2022/11/04 10:59:29;;;;;;;39.37;7.03;;;11.70;99.90;;;;;;4965571;28;20773;-67
2022/11/04 11:01:57;;;;;;;41.23;5.93;;;11.70;99.90;;;;;;4965912;28;20425;-69
2022/11/04 11:04:35;;;;;;;44.40;7.10;;;11.70;1.00;;;;;;4970362;28;20409;-69
2022/11/04 11:07:07;;;;;;;28.07;4.53;;;11.80;5.60;;;;;;4969526;28;20508;-66
2022/11/04 11:09:39;;;;;;;11.10;2.90;;;11.90;1.00;;;;;;4970618;28;20444;-66
2022/11/04 11:12:17;;;;;;;14.47;4.30;;;11.90;1.00;;;;;;4969710;28;20942;-69
2022/11/04 11:14:43;;;;;;;10.97;2.43;;;11.90;1.00;;;;;;4970324;28;20401;-68
2022/11/04 11:17:14;;;;;;;52.20;7.17;;;11.90;1.00;;;;;;4969541;28;20772;-66
2022/11/04 11:20:07;;;;;;;32.43;4.17;;;11.90;99.90;;;;;;4969848;28;20436;-66
2022/11/04 11:22:36;;;;;;;21.53;3.40;;;12.00;55.80;;;;;;4969725;28;20540;-72
2022/11/04 11:25:29;;;;;;;25.80;4.20;;;12.10;1.00;;;;;;4970782;28;20419;-67
2022/11/04 11:27:56;;;;;;;15.67;3.40;;;12.10;1.00;;;;;;4963134;28;20758;-67
2022/11/04 11:30:33;;;;;;;6.13;2.47;;;12.20;1.00;;;;;;4954827;28;20447;-71
2022/11/04 11:33:02;;;;;;;5.63;2.70;;;12.20;1.00;;;;;;4954268;28;20893;-68
2022/11/04 11:35:41;;;;;;;8.03;2.57;;;12.30;1.00;;;;;;4955044;28;20402;-68
2022/11/04 11:38:17;;;;;;;7.00;2.27;;;12.40;1.00;;;;;;4955329;28;20441;-68
2022/11/04 11:40:45;;;;;;;149.63;20.60;;;12.40;1.00;;;;;;4961842;28;20424;-68
2022/11/04 11:43:30;;;;;;;90.43;14.03;;;12.40;99.90;;;;;;4973016;28;20491;-68
2022/11/04 11:45:58;;;;;;;167.87;20.30;;;12.40;99.90;;;;;;4954307;28;20410;-69
2022/11/04 11:48:39;;;;;;;17.50;4.07;;;12.50;99.90;;;;;;4962204;28;20429;-69
2022/11/04 11:51:06;;;;;;;38.63;7.00;;;12.60;99.90;;;;;;4968506;28;20464;-69
2022/11/04 11:53:37;;;;;;;12.43;3.93;;;12.60;99.90;;;;;;4974215;28;20548;-68
2022/11/04 11:56:20;;;;;;;8.53;2.23;;;12.50;99.90;;;;;;4962653;28;20417;-69
2022/11/04 11:58:51;;;;;;;23.90;5.63;;;12.50;99.90;;;;;;4961979;28;20503;-68
2022/11/04 12:01:29;;;;;;;32.07;6.80;;;12.50;99.90;;;;;;4968149;28;20443;-69
2022/11/04 12:03:55;;;;;;;56.07;7.10;;;12.60;99.90;;;;;;4968075;28;20777;-69
2022/11/04 12:06:29;;;;;;;28.60;5.43;;;12.60;99.90;;;;;;4973209;28;20512;-69
2022/11/04 12:08:55;;;;;;;17.43;3.33;;;12.50;99.90;;;;;;4970533;28;20871;-68
2022/11/04 12:11:30;;;;;;;41.43;5.60;;;12.50;99.60;;;;;;4969619;28;20519;-69
2022/11/04 12:14:04;;;;;;;31.53;5.90;;;12.40;94.70;;;;;;4963892;28;20224;-68
2022/11/04 12:16:38;;;;;;;44.40;6.80;;;12.50;90.10;;;;;;4961695;28;20456;-68
2022/11/04 12:19:25;;;;;;;73.83;8.57;;;12.50;92.20;;;;;;4971855;28;20453;-67
2022/11/04 12:22:11;;;;;;;118.03;17.13;;;12.50;17.60;;;;;;4952888;28;20477;-68
2022/11/04 12:24:44;;;;;;;23.20;4.43;;;12.60;15.80;;;;;;4955770;28;20417;-68
2022/11/04 12:27:28;;;;;;;35.60;5.10;;;12.60;1.00;;;;;;4964789;28;20460;-68
2022/11/04 12:30:12;;;;;;;254.63;25.23;;;12.50;1.00;;;;;;4962718;28;20418;-69
2022/11/04 12:32:42;;;;;;;132.57;16.70;;;12.50;1.00;;;;;;4961431;28;20858;-69
2022/11/04 12:35:17;;;;;;;159.43;18.63;;;12.50;1.00;;;;;;4963521;28;20527;-68
2022/11/04 12:38:05;;;;;;;114.90;16.53;;;12.50;1.00;;;;;;4964161;28;20463;-69
2022/11/04 12:40:45;;;;;;;90.43;11.43;;;12.50;1.00;;;;;;4966210;28;20619;-69
2022/11/04 12:43:51;;;;;;;20.47;3.37;;;12.60;1.00;;;;;;4963319;28;20413;-68
2022/11/04 12:46:31;;;;;;;25.90;5.00;;;12.60;1.00;;;;;;4963158;28;20417;-68
2022/11/04 12:49:17;;;;;;;76.20;9.93;;;12.60;1.00;;;;;;4964258;28;20444;-69
2022/11/04 12:52:07;;;;;;;40.97;6.13;;;12.60;1.00;;;;;;4971449;28;20409;-68
2022/11/04 12:54:32;;;;;;;35.93;4.60;;;12.60;1.00;;;;;;4973018;28;20870;-69
2022/11/04 12:57:18;;;;;;;51.93;6.43;;;12.60;1.00;;;;;;4972697;28;20445;-68
2022/11/04 13:00:06;;;;;;;53.23;8.07;;;12.60;1.00;;;;;;4956464;28;20206;-69
2022/11/04 13:02:44;;;;;;;14.23;3.80;;;12.70;1.00;;;;;;4952496;29;20740;-68
2022/11/04 13:05:28;;;;;;;9.63;3.60;;;12.70;1.00;;;;;;4953788;28;20414;-69
2022/11/04 13:08:18;;;;;;;9.60;2.60;;;12.70;1.00;;;;;;4953669;28;20410;-69
2022/11/04 13:10:54;;;;;;;12.97;2.60;;;12.60;1.00;;;;;;4952531;28;20430;-69
2022/11/04 13:13:35;;;;;;;7.93;2.23;;;12.50;1.00;;;;;;4953265;28;20462;-68
2022/11/04 13:16:09;;;;;;;96.73;11.60;;;12.50;1.00;;;;;;4962122;28;20413;-68
2022/11/04 13:18:38;;;;;;;37.60;5.23;;;12.50;1.00;;;;;;4972254;28;20420;-70
2022/11/04 13:21:12;;;;;;;39.13;6.23;;;12.50;1.00;;;;;;4972326;28;20424;-69
2022/11/04 13:23:48;;;;;;;77.10;8.53;;;12.60;1.00;;;;;;4972360;28;20420;-68
2022/11/04 13:26:16;;;;;;;67.10;10.10;;;12.60;1.00;;;;;;4972358;28;20969;-69
2022/11/04 13:28:44;;;;;;;47.93;7.50;;;12.60;1.00;;;;;;4972371;28;20429;-68
2022/11/04 13:31:21;;;;;;;21.10;3.40;;;12.60;1.00;;;;;;4971695;28;20419;-69
2022/11/04 13:34:05;;;;;;;40.13;6.53;;;12.60;1.00;;;;;;4971988;28;20478;-69
2022/11/04 13:36:49;;;;;;;124.60;17.77;;;12.70;1.00;;;;;;4972418;28;20414;-68
2022/11/04 13:39:17;;;;;;;50.10;7.90;;;12.70;1.00;;;;;;4972006;28;20424;-68